sensor_id;sensor_type;location;lat;lon;timestamp;P1;durP1;ratioP1;P2;durP2;ratioP2
45476;SDS011;31958;51.756;-2.556;2024-01-07T00:01:23;4.30;;;2.50;;
45476;SDS011;31958;51.756;-2.556;2024-01-07T00:03:48;5.82;;;2.63;;
45476;SDS011;31958;51.756;-2.556;2024-01-07T00:06:14;12.00;;;2.45;;
45476;SDS011;31958;51.756;-2.556;2024-01-07T00:08:39;16.80;;;3.72;;
45476;SDS011;31958;51.756;-2.556;2024-01-07T00:11:04;5.90;;;2.28;;
45476;SDS011;31958;51.756;-2.556;2024-01-07T00:13:29;7.90;;;2.08;;
45476;SDS011;31958;51.756;-2.556;2024-01-07T00:15:55;10.80;;;2.45;;
45476;SDS011;31958;51.756;-2.556;2024-01-07T00:18:20;5.90;;;2.45;;
45476;SDS011;31958;51.756;-2.556;2024-01-07T00:20:47;4.75;;;2.85;;
45476;SDS011;31958;51.756;-2.556;2024-01-07T00:23:12;48.97;;;5.00;;
45476;SDS011;31958;51.756;-2.556;2024-01-07T00:25:37;6.60;;;3.70;;
45476;SDS011;31958;51.756;-2.556;2024-01-07T00:28:03;9.07;;;2.60;;
45476;SDS011;31958;51.756;-2.556;2024-01-07T00:30:28;6.82;;;2.92;;
45476;SDS011;31958;51.756;-2.556;2024-01-07T00:32:54;5.93;;;3.25;;
45476;SDS011;31958;51.756;-2.556;2024-01-07T00:35:19;12.70;;;3.60;;
45476;SDS011;31958;51.756;-2.556;2024-01-07T00:37:45;6.38;;;2.53;;
45476;SDS011;31958;51.756;-2.556;2024-01-07T00:40:10;12.75;;;3.35;;
45476;SDS011;31958;51.756;-2.556;2024-01-07T00:42:36;8.50;;;3.38;;
45476;SDS011;31958;51.756;-2.556;2024-01-07T00:45:02;5.32;;;2.60;;
45476;SDS011;31958;51.756;-2.556;2024-01-07T00:47:27;7.38;;;2.92;;
45476;SDS011;31958;51.756;-2.556;2024-01-07T00:49:53;7.93;;;2.63;;
45476;SDS011;31958;51.756;-2.556;2024-01-07T00:52:18;4.43;;;2.58;;
45476;SDS011;31958;51.756;-2.556;2024-01-07T00:54:43;5.68;;;2.88;;
45476;SDS011;31958;51.756;-2.556;2024-01-07T00:57:10;6.72;;;2.83;;
45476;SDS011;31958;51.756;-2.556;2024-01-07T00:59:36;5.50;;;3.10;;
45476;SDS011;31958;51.756;-2.556;2024-01-07T01:02:01;8.85;;;3.20;;
45476;SDS011;31958;51.756;-2.556;2024-01-07T01:04:26;6.90;;;3.22;;
45476;SDS011;31958;51.756;-2.556;2024-01-07T01:06:52;8.32;;;2.28;;
45476;SDS011;31958;51.756;-2.556;2024-01-07T01:09:17;10.43;;;3.20;;
45476;SDS011;31958;51.756;-2.556;2024-01-07T01:11:42;8.23;;;3.28;;
45476;SDS011;31958;51.756;-2.556;2024-01-07T01:14:08;4.78;;;2.75;;
45476;SDS011;31958;51.756;-2.556;2024-01-07T01:16:34;28.55;;;4.22;;
45476;SDS011;31958;51.756;-2.556;2024-01-07T01:18:59;5.00;;;3.00;;
45476;SDS011;31958;51.756;-2.556;2024-01-07T01:21:24;9.40;;;3.47;;
45476;SDS011;31958;51.756;-2.556;2024-01-07T01:23:50;5.93;;;3.00;;
45476;SDS011;31958;51.756;-2.556;2024-01-07T01:26:15;32.60;;;3.90;;
45476;SDS011;31958;51.756;-2.556;2024-01-07T01:28:40;19.63;;;4.32;;
45476;SDS011;31958;51.756;-2.556;2024-01-07T01:31:06;7.97;;;3.38;;
45476;SDS011;31958;51.756;-2.556;2024-01-07T01:33:31;19.83;;;4.38;;
45476;SDS011;31958;51.756;-2.556;2024-01-07T01:35:56;16.67;;;3.65;;
45476;SDS011;31958;51.756;-2.556;2024-01-07T01:38:22;12.07;;;3.42;;
45476;SDS011;31958;51.756;-2.556;2024-01-07T01:40:51;7.95;;;3.88;;
45476;SDS011;31958;51.756;-2.556;2024-01-07T01:43:25;10.95;;;4.90;;
45476;SDS011;31958;51.756;-2.556;2024-01-07T01:45:54;10.60;;;3.70;;
45476;SDS011;31958;51.756;-2.556;2024-01-07T01:48:20;11.05;;;4.07;;
45476;SDS011;31958;51.756;-2.556;2024-01-07T01:50:47;11.25;;;3.85;;
45476;SDS011;31958;51.756;-2.556;2024-01-07T01:53:13;14.70;;;4.22;;
45476;SDS011;31958;51.756;-2.556;2024-01-07T01:55:38;6.03;;;3.50;;
45476;SDS011;31958;51.756;-2.556;2024-01-07T01:58:04;6.13;;;3.83;;
45476;SDS011;31958;51.756;-2.556;2024-01-07T02:00:30;18.40;;;4.53;;
45476;SDS011;31958;51.756;-2.556;2024-01-07T02:02:55;9.00;;;4.15;;
45476;SDS011;31958;51.756;-2.556;2024-01-07T02:05:21;9.82;;;3.75;;
45476;SDS011;31958;51.756;-2.556;2024-01-07T02:07:46;14.00;;;4.25;;
45476;SDS011;31958;51.756;-2.556;2024-01-07T02:10:12;8.38;;;4.15;;
45476;SDS011;31958;51.756;-2.556;2024-01-07T02:12:38;13.35;;;3.40;;
45476;SDS011;31958;51.756;-2.556;2024-01-07T02:15:03;10.75;;;4.28;;
45476;SDS011;31958;51.756;-2.556;2024-01-07T02:17:29;11.18;;;4.10;;
45476;SDS011;31958;51.756;-2.556;2024-01-07T02:19:54;21.27;;;5.20;;
45476;SDS011;31958;51.756;-2.556;2024-01-07T02:22:20;12.07;;;4.13;;
45476;SDS011;31958;51.756;-2.556;2024-01-07T02:24:45;12.52;;;5.18;;
45476;SDS011;31958;51.756;-2.556;2024-01-07T02:27:10;15.82;;;3.92;;
45476;SDS011;31958;51.756;-2.556;2024-01-07T02:29:36;15.60;;;4.32;;
45476;SDS011;31958;51.756;-2.556;2024-01-07T02:32:01;10.82;;;4.45;;
45476;SDS011;31958;51.756;-2.556;2024-01-07T02:34:27;7.60;;;4.38;;
45476;SDS011;31958;51.756;-2.556;2024-01-07T02:36:52;21.00;;;4.00;;
45476;SDS011;31958;51.756;-2.556;2024-01-07T02:39:17;6.65;;;4.10;;
45476;SDS011;31958;51.756;-2.556;2024-01-07T02:41:43;8.45;;;4.03;;
45476;SDS011;31958;51.756;-2.556;2024-01-07T02:44:08;11.68;;;4.53;;
45476;SDS011;31958;51.756;-2.556;2024-01-07T02:46:33;10.10;;;3.78;;
45476;SDS011;31958;51.756;-2.556;2024-01-07T02:48:58;9.45;;;3.53;;
45476;SDS011;31958;51.756;-2.556;2024-01-07T02:51:24;6.97;;;3.95;;
45476;SDS011;31958;51.756;-2.556;2024-01-07T02:53:49;7.25;;;4.00;;
45476;SDS011;31958;51.756;-2.556;2024-01-07T02:56:14;9.27;;;4.30;;
45476;SDS011;31958;51.756;-2.556;2024-01-07T02:58:40;10.18;;;3.83;;
45476;SDS011;31958;51.756;-2.556;2024-01-07T03:01:08;8.50;;;4.05;;
45476;SDS011;31958;51.756;-2.556;2024-01-07T03:03:34;13.07;;;3.55;;
45476;SDS011;31958;51.756;-2.556;2024-01-07T03:06:00;27.52;;;4.22;;
45476;SDS011;31958;51.756;-2.556;2024-01-07T03:08:25;19.85;;;4.47;;
45476;SDS011;31958;51.756;-2.556;2024-01-07T03:10:50;9.02;;;4.55;;
45476;SDS011;31958;51.756;-2.556;2024-01-07T03:13:16;10.63;;;4.40;;
45476;SDS011;31958;51.756;-2.556;2024-01-07T03:15:41;7.15;;;3.63;;
45476;SDS011;31958;51.756;-2.556;2024-01-07T03:18:06;13.43;;;4.47;;
45476;SDS011;31958;51.756;-2.556;2024-01-07T03:20:32;11.23;;;5.45;;
45476;SDS011;31958;51.756;-2.556;2024-01-07T03:22:58;14.48;;;4.78;;
45476;SDS011;31958;51.756;-2.556;2024-01-07T03:25:25;14.63;;;5.57;;
45476;SDS011;31958;51.756;-2.556;2024-01-07T03:27:50;9.27;;;4.50;;
45476;SDS011;31958;51.756;-2.556;2024-01-07T03:30:15;11.45;;;4.20;;
45476;SDS011;31958;51.756;-2.556;2024-01-07T03:32:41;12.90;;;4.53;;
45476;SDS011;31958;51.756;-2.556;2024-01-07T03:35:06;18.63;;;5.00;;
45476;SDS011;31958;51.756;-2.556;2024-01-07T03:37:33;11.90;;;4.47;;
45476;SDS011;31958;51.756;-2.556;2024-01-07T03:39:59;10.15;;;4.90;;
45476;SDS011;31958;51.756;-2.556;2024-01-07T03:42:24;13.63;;;4.90;;
45476;SDS011;31958;51.756;-2.556;2024-01-07T03:44:50;20.45;;;5.45;;
45476;SDS011;31958;51.756;-2.556;2024-01-07T03:47:15;14.10;;;5.30;;
45476;SDS011;31958;51.756;-2.556;2024-01-07T03:49:41;13.48;;;4.90;;
45476;SDS011;31958;51.756;-2.556;2024-01-07T03:52:06;25.13;;;5.88;;
45476;SDS011;31958;51.756;-2.556;2024-01-07T03:54:32;12.73;;;4.90;;
45476;SDS011;31958;51.756;-2.556;2024-01-07T03:56:57;10.90;;;5.53;;
45476;SDS011;31958;51.756;-2.556;2024-01-07T03:59:23;17.38;;;5.53;;
45476;SDS011;31958;51.756;-2.556;2024-01-07T04:01:50;12.18;;;4.57;;
45476;SDS011;31958;51.756;-2.556;2024-01-07T04:04:15;11.70;;;5.20;;
45476;SDS011;31958;51.756;-2.556;2024-01-07T04:06:41;14.35;;;5.53;;
45476;SDS011;31958;51.756;-2.556;2024-01-07T04:09:06;19.70;;;5.90;;
45476;SDS011;31958;51.756;-2.556;2024-01-07T04:11:33;24.65;;;5.20;;
45476;SDS011;31958;51.756;-2.556;2024-01-07T04:14:03;26.27;;;6.32;;
45476;SDS011;31958;51.756;-2.556;2024-01-07T04:16:28;13.65;;;5.45;;
45476;SDS011;31958;51.756;-2.556;2024-01-07T04:18:54;19.50;;;5.35;;
45476;SDS011;31958;51.756;-2.556;2024-01-07T04:21:19;13.68;;;5.50;;
45476;SDS011;31958;51.756;-2.556;2024-01-07T04:23:45;18.75;;;6.28;;
45476;SDS011;31958;51.756;-2.556;2024-01-07T04:26:10;25.58;;;6.10;;
45476;SDS011;31958;51.756;-2.556;2024-01-07T04:28:35;9.05;;;5.40;;
45476;SDS011;31958;51.756;-2.556;2024-01-07T04:31:01;15.30;;;5.13;;
45476;SDS011;31958;51.756;-2.556;2024-01-07T04:33:26;17.38;;;5.97;;
45476;SDS011;31958;51.756;-2.556;2024-01-07T04:35:52;18.38;;;5.50;;
45476;SDS011;31958;51.756;-2.556;2024-01-07T04:38:17;21.17;;;5.13;;
45476;SDS011;31958;51.756;-2.556;2024-01-07T04:40:42;12.95;;;4.53;;
45476;SDS011;31958;51.756;-2.556;2024-01-07T04:43:08;13.43;;;5.32;;
45476;SDS011;31958;51.756;-2.556;2024-01-07T04:45:33;10.95;;;4.95;;
45476;SDS011;31958;51.756;-2.556;2024-01-07T04:47:58;13.20;;;5.18;;
45476;SDS011;31958;51.756;-2.556;2024-01-07T04:50:24;13.82;;;5.95;;
45476;SDS011;31958;51.756;-2.556;2024-01-07T04:52:49;17.15;;;6.13;;
45476;SDS011;31958;51.756;-2.556;2024-01-07T04:55:15;22.77;;;6.50;;
45476;SDS011;31958;51.756;-2.556;2024-01-07T04:57:40;17.90;;;5.45;;
45476;SDS011;31958;51.756;-2.556;2024-01-07T05:00:05;20.23;;;4.82;;
45476;SDS011;31958;51.756;-2.556;2024-01-07T05:02:31;14.93;;;6.00;;
45476;SDS011;31958;51.756;-2.556;2024-01-07T05:04:56;13.73;;;6.47;;
45476;SDS011;31958;51.756;-2.556;2024-01-07T05:07:22;23.75;;;6.07;;
45476;SDS011;31958;51.756;-2.556;2024-01-07T05:09:47;18.88;;;5.82;;
45476;SDS011;31958;51.756;-2.556;2024-01-07T05:12:12;17.05;;;5.68;;
45476;SDS011;31958;51.756;-2.556;2024-01-07T05:14:38;18.60;;;5.97;;
45476;SDS011;31958;51.756;-2.556;2024-01-07T05:17:03;10.98;;;5.65;;
45476;SDS011;31958;51.756;-2.556;2024-01-07T05:19:29;29.35;;;6.30;;
45476;SDS011;31958;51.756;-2.556;2024-01-07T05:21:54;14.32;;;6.07;;
45476;SDS011;31958;51.756;-2.556;2024-01-07T05:24:20;16.42;;;5.53;;
45476;SDS011;31958;51.756;-2.556;2024-01-07T05:26:45;22.45;;;5.93;;
45476;SDS011;31958;51.756;-2.556;2024-01-07T05:29:11;13.65;;;5.43;;
45476;SDS011;31958;51.756;-2.556;2024-01-07T05:31:40;14.90;;;6.57;;
45476;SDS011;31958;51.756;-2.556;2024-01-07T05:34:05;22.90;;;5.78;;
45476;SDS011;31958;51.756;-2.556;2024-01-07T05:36:30;19.95;;;6.15;;
45476;SDS011;31958;51.756;-2.556;2024-01-07T05:38:56;18.42;;;6.40;;
45476;SDS011;31958;51.756;-2.556;2024-01-07T05:41:21;17.25;;;5.88;;
45476;SDS011;31958;51.756;-2.556;2024-01-07T05:43:46;17.45;;;6.28;;
45476;SDS011;31958;51.756;-2.556;2024-01-07T05:46:12;18.15;;;5.97;;
45476;SDS011;31958;51.756;-2.556;2024-01-07T05:48:44;24.17;;;5.93;;
45476;SDS011;31958;51.756;-2.556;2024-01-07T05:51:11;14.80;;;7.43;;
45476;SDS011;31958;51.756;-2.556;2024-01-07T05:53:36;19.38;;;6.20;;
45476;SDS011;31958;51.756;-2.556;2024-01-07T05:56:01;27.98;;;7.80;;
45476;SDS011;31958;51.756;-2.556;2024-01-07T05:58:28;23.90;;;6.38;;
45476;SDS011;31958;51.756;-2.556;2024-01-07T06:00:53;25.33;;;6.05;;
45476;SDS011;31958;51.756;-2.556;2024-01-07T06:03:18;25.83;;;6.32;;
45476;SDS011;31958;51.756;-2.556;2024-01-07T06:05:44;18.52;;;6.78;;
45476;SDS011;31958;51.756;-2.556;2024-01-07T06:08:09;12.82;;;5.20;;
45476;SDS011;31958;51.756;-2.556;2024-01-07T06:10:35;17.60;;;6.45;;
45476;SDS011;31958;51.756;-2.556;2024-01-07T06:13:00;18.17;;;6.20;;
45476;SDS011;31958;51.756;-2.556;2024-01-07T06:15:26;19.00;;;7.40;;
45476;SDS011;31958;51.756;-2.556;2024-01-07T06:17:51;19.45;;;7.30;;
45476;SDS011;31958;51.756;-2.556;2024-01-07T06:20:17;29.13;;;6.50;;
45476;SDS011;31958;51.756;-2.556;2024-01-07T06:22:42;14.27;;;6.35;;
45476;SDS011;31958;51.756;-2.556;2024-01-07T06:25:08;19.90;;;6.53;;
45476;SDS011;31958;51.756;-2.556;2024-01-07T06:27:33;28.20;;;6.68;;
45476;SDS011;31958;51.756;-2.556;2024-01-07T06:29:58;15.02;;;6.30;;
45476;SDS011;31958;51.756;-2.556;2024-01-07T06:32:24;20.52;;;6.45;;
45476;SDS011;31958;51.756;-2.556;2024-01-07T06:34:50;17.58;;;6.32;;
45476;SDS011;31958;51.756;-2.556;2024-01-07T06:37:15;22.90;;;6.78;;
45476;SDS011;31958;51.756;-2.556;2024-01-07T06:39:41;21.98;;;6.15;;
45476;SDS011;31958;51.756;-2.556;2024-01-07T06:42:06;17.13;;;6.60;;
45476;SDS011;31958;51.756;-2.556;2024-01-07T06:44:31;22.45;;;6.90;;
45476;SDS011;31958;51.756;-2.556;2024-01-07T06:46:57;23.65;;;7.18;;
45476;SDS011;31958;51.756;-2.556;2024-01-07T06:49:22;15.68;;;5.85;;
45476;SDS011;31958;51.756;-2.556;2024-01-07T06:51:47;15.65;;;6.05;;
45476;SDS011;31958;51.756;-2.556;2024-01-07T06:54:12;26.10;;;6.05;;
45476;SDS011;31958;51.756;-2.556;2024-01-07T06:56:38;20.17;;;6.10;;
45476;SDS011;31958;51.756;-2.556;2024-01-07T06:59:03;17.63;;;6.30;;
45476;SDS011;31958;51.756;-2.556;2024-01-07T07:01:29;9.13;;;5.50;;
45476;SDS011;31958;51.756;-2.556;2024-01-07T07:03:54;18.70;;;6.30;;
45476;SDS011;31958;51.756;-2.556;2024-01-07T07:06:19;14.43;;;5.53;;
45476;SDS011;31958;51.756;-2.556;2024-01-07T07:08:45;14.90;;;6.70;;
45476;SDS011;31958;51.756;-2.556;2024-01-07T07:11:10;15.65;;;6.30;;
45476;SDS011;31958;51.756;-2.556;2024-01-07T07:13:36;21.48;;;5.75;;
45476;SDS011;31958;51.756;-2.556;2024-01-07T07:16:02;21.13;;;5.43;;
45476;SDS011;31958;51.756;-2.556;2024-01-07T07:18:27;27.10;;;6.60;;
45476;SDS011;31958;51.756;-2.556;2024-01-07T07:20:53;16.90;;;5.55;;
45476;SDS011;31958;51.756;-2.556;2024-01-07T07:23:18;15.50;;;5.47;;
45476;SDS011;31958;51.756;-2.556;2024-01-07T07:25:43;24.25;;;5.97;;
45476;SDS011;31958;51.756;-2.556;2024-01-07T07:28:09;19.48;;;5.53;;
45476;SDS011;31958;51.756;-2.556;2024-01-07T07:30:34;13.10;;;5.18;;
45476;SDS011;31958;51.756;-2.556;2024-01-07T07:32:59;17.75;;;6.03;;
45476;SDS011;31958;51.756;-2.556;2024-01-07T07:35:25;19.98;;;6.35;;
45476;SDS011;31958;51.756;-2.556;2024-01-07T07:37:50;15.70;;;4.95;;
45476;SDS011;31958;51.756;-2.556;2024-01-07T07:40:15;18.45;;;5.40;;
45476;SDS011;31958;51.756;-2.556;2024-01-07T07:42:41;13.88;;;5.60;;
45476;SDS011;31958;51.756;-2.556;2024-01-07T07:45:07;13.27;;;5.47;;
45476;SDS011;31958;51.756;-2.556;2024-01-07T07:47:32;17.63;;;6.00;;
45476;SDS011;31958;51.756;-2.556;2024-01-07T07:49:57;16.48;;;5.78;;
45476;SDS011;31958;51.756;-2.556;2024-01-07T07:52:23;14.50;;;5.00;;
45476;SDS011;31958;51.756;-2.556;2024-01-07T07:54:51;11.68;;;5.07;;
45476;SDS011;31958;51.756;-2.556;2024-01-07T07:57:17;13.70;;;5.05;;
45476;SDS011;31958;51.756;-2.556;2024-01-07T07:59:42;17.25;;;5.90;;
45476;SDS011;31958;51.756;-2.556;2024-01-07T08:02:07;14.10;;;5.70;;
45476;SDS011;31958;51.756;-2.556;2024-01-07T08:04:33;17.67;;;5.25;;
45476;SDS011;31958;51.756;-2.556;2024-01-07T08:06:58;14.73;;;5.68;;
45476;SDS011;31958;51.756;-2.556;2024-01-07T08:09:25;17.10;;;5.25;;
45476;SDS011;31958;51.756;-2.556;2024-01-07T08:11:51;12.55;;;4.95;;
45476;SDS011;31958;51.756;-2.556;2024-01-07T08:14:16;16.10;;;5.82;;
45476;SDS011;31958;51.756;-2.556;2024-01-07T08:16:41;11.90;;;5.30;;
45476;SDS011;31958;51.756;-2.556;2024-01-07T08:19:07;13.35;;;4.57;;
45476;SDS011;31958;51.756;-2.556;2024-01-07T08:21:32;23.70;;;5.47;;
45476;SDS011;31958;51.756;-2.556;2024-01-07T08:23:58;19.38;;;5.50;;
45476;SDS011;31958;51.756;-2.556;2024-01-07T08:26:23;18.00;;;4.75;;
45476;SDS011;31958;51.756;-2.556;2024-01-07T08:28:49;14.63;;;5.75;;
45476;SDS011;31958;51.756;-2.556;2024-01-07T08:31:14;15.82;;;4.97;;
45476;SDS011;31958;51.756;-2.556;2024-01-07T08:33:39;16.70;;;5.55;;
45476;SDS011;31958;51.756;-2.556;2024-01-07T08:36:05;21.63;;;5.03;;
45476;SDS011;31958;51.756;-2.556;2024-01-07T08:38:30;9.95;;;4.97;;
45476;SDS011;31958;51.756;-2.556;2024-01-07T08:40:56;19.50;;;5.95;;
45476;SDS011;31958;51.756;-2.556;2024-01-07T08:43:21;13.73;;;5.55;;
45476;SDS011;31958;51.756;-2.556;2024-01-07T08:45:47;15.32;;;5.57;;
45476;SDS011;31958;51.756;-2.556;2024-01-07T08:48:12;14.65;;;5.90;;
45476;SDS011;31958;51.756;-2.556;2024-01-07T08:50:38;16.73;;;4.93;;
45476;SDS011;31958;51.756;-2.556;2024-01-07T08:53:04;13.73;;;4.18;;
45476;SDS011;31958;51.756;-2.556;2024-01-07T08:55:29;9.57;;;4.57;;
45476;SDS011;31958;51.756;-2.556;2024-01-07T08:57:55;15.27;;;5.43;;
45476;SDS011;31958;51.756;-2.556;2024-01-07T09:00:20;11.73;;;4.13;;
45476;SDS011;31958;51.756;-2.556;2024-01-07T09:02:50;9.68;;;4.75;;
45476;SDS011;31958;51.756;-2.556;2024-01-07T09:05:16;15.73;;;4.25;;
45476;SDS011;31958;51.756;-2.556;2024-01-07T09:07:41;11.48;;;5.05;;
45476;SDS011;31958;51.756;-2.556;2024-01-07T09:10:07;13.07;;;5.30;;
45476;SDS011;31958;51.756;-2.556;2024-01-07T09:12:35;14.68;;;4.68;;
45476;SDS011;31958;51.756;-2.556;2024-01-07T09:15:01;7.70;;;4.22;;
45476;SDS011;31958;51.756;-2.556;2024-01-07T09:17:27;12.45;;;5.25;;
45476;SDS011;31958;51.756;-2.556;2024-01-07T09:19:52;12.48;;;4.65;;
45476;SDS011;31958;51.756;-2.556;2024-01-07T09:22:17;6.00;;;3.45;;
45476;SDS011;31958;51.756;-2.556;2024-01-07T09:24:43;9.93;;;3.85;;
45476;SDS011;31958;51.756;-2.556;2024-01-07T09:27:08;6.10;;;3.53;;
45476;SDS011;31958;51.756;-2.556;2024-01-07T09:29:33;12.75;;;3.28;;
45476;SDS011;31958;51.756;-2.556;2024-01-07T09:31:59;16.73;;;3.45;;
45476;SDS011;31958;51.756;-2.556;2024-01-07T09:34:24;7.18;;;2.65;;
45476;SDS011;31958;51.756;-2.556;2024-01-07T09:36:49;7.25;;;2.80;;
45476;SDS011;31958;51.756;-2.556;2024-01-07T09:39:15;15.77;;;3.00;;
45476;SDS011;31958;51.756;-2.556;2024-01-07T09:41:40;6.72;;;3.28;;
45476;SDS011;31958;51.756;-2.556;2024-01-07T09:44:06;8.20;;;2.85;;
45476;SDS011;31958;51.756;-2.556;2024-01-07T09:46:31;10.82;;;2.95;;
45476;SDS011;31958;51.756;-2.556;2024-01-07T09:48:57;7.95;;;2.65;;
45476;SDS011;31958;51.756;-2.556;2024-01-07T09:51:22;5.55;;;2.60;;
45476;SDS011;31958;51.756;-2.556;2024-01-07T09:53:48;6.57;;;2.47;;
45476;SDS011;31958;51.756;-2.556;2024-01-07T09:56:25;6.47;;;2.40;;
45476;SDS011;31958;51.756;-2.556;2024-01-07T09:58:51;6.65;;;2.92;;
45476;SDS011;31958;51.756;-2.556;2024-01-07T10:01:19;7.45;;;2.95;;
45476;SDS011;31958;51.756;-2.556;2024-01-07T10:03:45;9.23;;;2.42;;
45476;SDS011;31958;51.756;-2.556;2024-01-07T10:06:10;6.30;;;2.30;;
45476;SDS011;31958;51.756;-2.556;2024-01-07T10:08:36;8.00;;;2.42;;
45476;SDS011;31958;51.756;-2.556;2024-01-07T10:11:02;6.97;;;2.88;;
45476;SDS011;31958;51.756;-2.556;2024-01-07T10:13:29;7.72;;;2.80;;
45476;SDS011;31958;51.756;-2.556;2024-01-07T10:15:55;9.48;;;2.28;;
45476;SDS011;31958;51.756;-2.556;2024-01-07T10:18:21;13.20;;;2.38;;
45476;SDS011;31958;51.756;-2.556;2024-01-07T10:20:46;16.10;;;2.65;;
45476;SDS011;31958;51.756;-2.556;2024-01-07T10:23:11;5.15;;;2.50;;
45476;SDS011;31958;51.756;-2.556;2024-01-07T10:25:37;5.57;;;2.10;;
45476;SDS011;31958;51.756;-2.556;2024-01-07T10:28:02;3.78;;;1.88;;
45476;SDS011;31958;51.756;-2.556;2024-01-07T10:30:28;7.45;;;1.33;;
45476;SDS011;31958;51.756;-2.556;2024-01-07T10:32:57;7.32;;;2.10;;
45476;SDS011;31958;51.756;-2.556;2024-01-07T10:35:25;7.18;;;2.20;;
45476;SDS011;31958;51.756;-2.556;2024-01-07T10:37:53;3.35;;;1.58;;
45476;SDS011;31958;51.756;-2.556;2024-01-07T10:40:18;5.70;;;1.58;;
45476;SDS011;31958;51.756;-2.556;2024-01-07T10:42:43;3.13;;;1.00;;
45476;SDS011;31958;51.756;-2.556;2024-01-07T10:45:10;2.95;;;1.45;;
45476;SDS011;31958;51.756;-2.556;2024-01-07T10:47:35;5.47;;;1.25;;
45476;SDS011;31958;51.756;-2.556;2024-01-07T10:50:01;2.28;;;1.20;;
45476;SDS011;31958;51.756;-2.556;2024-01-07T10:52:28;2.22;;;1.40;;
45476;SDS011;31958;51.756;-2.556;2024-01-07T10:54:56;10.43;;;1.50;;
45476;SDS011;31958;51.756;-2.556;2024-01-07T10:57:34;4.70;;;1.23;;
45476;SDS011;31958;51.756;-2.556;2024-01-07T11:00:02;1.90;;;0.93;;
45476;SDS011;31958;51.756;-2.556;2024-01-07T11:02:33;1.30;;;0.77;;
45476;SDS011;31958;51.756;-2.556;2024-01-07T11:05:23;3.00;;;1.15;;
45476;SDS011;31958;51.756;-2.556;2024-01-07T11:08:36;5.18;;;1.25;;
45476;SDS011;31958;51.756;-2.556;2024-01-07T11:11:09;5.75;;;1.23;;
45476;SDS011;31958;51.756;-2.556;2024-01-07T11:13:39;2.03;;;0.88;;
45476;SDS011;31958;51.756;-2.556;2024-01-07T11:16:07;3.67;;;1.10;;
45476;SDS011;31958;51.756;-2.556;2024-01-07T11:18:40;7.47;;;1.05;;
45476;SDS011;31958;51.756;-2.556;2024-01-07T11:21:22;1.35;;;0.73;;
45476;SDS011;31958;51.756;-2.556;2024-01-07T11:23:51;3.13;;;0.85;;
45476;SDS011;31958;51.756;-2.556;2024-01-07T11:26:18;1.27;;;0.80;;
45476;SDS011;31958;51.756;-2.556;2024-01-07T11:28:56;2.58;;;1.45;;
45476;SDS011;31958;51.756;-2.556;2024-01-07T11:31:55;3.53;;;0.70;;
45476;SDS011;31958;51.756;-2.556;2024-01-07T11:37:09;1.15;;;0.60;;
45476;SDS011;31958;51.756;-2.556;2024-01-07T11:39:36;1.55;;;0.70;;
45476;SDS011;31958;51.756;-2.556;2024-01-07T11:42:03;1.27;;;0.70;;
45476;SDS011;31958;51.756;-2.556;2024-01-07T11:44:29;1.35;;;1.00;;
45476;SDS011;31958;51.756;-2.556;2024-01-07T11:46:54;4.47;;;0.90;;
45476;SDS011;31958;51.756;-2.556;2024-01-07T11:49:20;5.57;;;0.93;;
45476;SDS011;31958;51.756;-2.556;2024-01-07T11:51:45;10.15;;;1.15;;
45476;SDS011;31958;51.756;-2.556;2024-01-07T11:54:11;4.13;;;1.10;;
45476;SDS011;31958;51.756;-2.556;2024-01-07T11:56:36;5.22;;;0.95;;
45476;SDS011;31958;51.756;-2.556;2024-01-07T11:59:03;1.42;;;0.80;;
45476;SDS011;31958;51.756;-2.556;2024-01-07T12:01:28;4.55;;;0.85;;
45476;SDS011;31958;51.756;-2.556;2024-01-07T12:03:53;3.00;;;1.17;;
45476;SDS011;31958;51.756;-2.556;2024-01-07T12:06:19;2.67;;;0.70;;
45476;SDS011;31958;51.756;-2.556;2024-01-07T12:08:44;3.92;;;0.98;;
45476;SDS011;31958;51.756;-2.556;2024-01-07T12:11:11;3.10;;;0.75;;
45476;SDS011;31958;51.756;-2.556;2024-01-07T12:13:37;1.05;;;0.68;;
45476;SDS011;31958;51.756;-2.556;2024-01-07T12:16:03;3.50;;;0.80;;
45476;SDS011;31958;51.756;-2.556;2024-01-07T12:18:29;5.63;;;1.00;;
45476;SDS011;31958;51.756;-2.556;2024-01-07T12:20:55;4.65;;;0.98;;
45476;SDS011;31958;51.756;-2.556;2024-01-07T12:23:22;1.85;;;0.68;;
45476;SDS011;31958;51.756;-2.556;2024-01-07T12:25:47;5.63;;;1.02;;
45476;SDS011;31958;51.756;-2.556;2024-01-07T12:28:13;2.63;;;0.65;;
45476;SDS011;31958;51.756;-2.556;2024-01-07T12:30:38;1.20;;;0.50;;
45476;SDS011;31958;51.756;-2.556;2024-01-07T12:33:06;1.15;;;0.52;;
45476;SDS011;31958;51.756;-2.556;2024-01-07T12:35:32;1.75;;;0.73;;
45476;SDS011;31958;51.756;-2.556;2024-01-07T12:37:59;2.10;;;0.82;;
45476;SDS011;31958;51.756;-2.556;2024-01-07T12:40:24;2.83;;;0.88;;
45476;SDS011;31958;51.756;-2.556;2024-01-07T12:42:52;4.40;;;0.80;;
45476;SDS011;31958;51.756;-2.556;2024-01-07T12:45:17;4.15;;;1.35;;
45476;SDS011;31958;51.756;-2.556;2024-01-07T12:47:43;1.60;;;0.80;;
45476;SDS011;31958;51.756;-2.556;2024-01-07T12:50:08;1.10;;;0.60;;
45476;SDS011;31958;51.756;-2.556;2024-01-07T12:52:37;1.20;;;0.70;;
45476;SDS011;31958;51.756;-2.556;2024-01-07T12:55:04;0.60;;;0.60;;
45476;SDS011;31958;51.756;-2.556;2024-01-07T12:57:29;1.23;;;0.70;;
45476;SDS011;31958;51.756;-2.556;2024-01-07T12:59:55;5.38;;;0.80;;
45476;SDS011;31958;51.756;-2.556;2024-01-07T13:02:20;0.85;;;0.60;;
45476;SDS011;31958;51.756;-2.556;2024-01-07T13:04:45;8.90;;;0.82;;
45476;SDS011;31958;51.756;-2.556;2024-01-07T13:07:11;0.63;;;0.47;;
45476;SDS011;31958;51.756;-2.556;2024-01-07T13:09:36;1.63;;;0.63;;
45476;SDS011;31958;51.756;-2.556;2024-01-07T13:12:02;1.17;;;0.80;;
45476;SDS011;31958;51.756;-2.556;2024-01-07T13:14:29;3.30;;;0.85;;
45476;SDS011;31958;51.756;-2.556;2024-01-07T13:16:54;0.98;;;0.60;;
45476;SDS011;31958;51.756;-2.556;2024-01-07T13:19:19;2.22;;;0.68;;
45476;SDS011;31958;51.756;-2.556;2024-01-07T13:21:45;4.97;;;0.85;;
45476;SDS011;31958;51.756;-2.556;2024-01-07T13:24:11;0.80;;;0.60;;
45476;SDS011;31958;51.756;-2.556;2024-01-07T13:26:36;1.42;;;0.52;;
45476;SDS011;31958;51.756;-2.556;2024-01-07T13:29:01;0.85;;;0.60;;
45476;SDS011;31958;51.756;-2.556;2024-01-07T13:31:28;0.85;;;0.70;;
45476;SDS011;31958;51.756;-2.556;2024-01-07T13:33:54;1.67;;;0.75;;
45476;SDS011;31958;51.756;-2.556;2024-01-07T13:36:19;8.05;;;0.93;;
45476;SDS011;31958;51.756;-2.556;2024-01-07T13:38:44;1.80;;;1.00;;
45476;SDS011;31958;51.756;-2.556;2024-01-07T13:41:11;3.17;;;1.00;;
45476;SDS011;31958;51.756;-2.556;2024-01-07T13:43:36;1.73;;;1.05;;
45476;SDS011;31958;51.756;-2.556;2024-01-07T13:46:05;2.33;;;0.60;;
45476;SDS011;31958;51.756;-2.556;2024-01-07T13:48:32;0.82;;;0.55;;
45476;SDS011;31958;51.756;-2.556;2024-01-07T13:50:59;9.48;;;1.23;;
45476;SDS011;31958;51.756;-2.556;2024-01-07T13:53:24;1.48;;;0.50;;
45476;SDS011;31958;51.756;-2.556;2024-01-07T13:55:50;0.50;;;0.47;;
45476;SDS011;31958;51.756;-2.556;2024-01-07T13:58:16;5.18;;;1.40;;
45476;SDS011;31958;51.756;-2.556;2024-01-07T14:00:41;2.58;;;1.10;;
45476;SDS011;31958;51.756;-2.556;2024-01-07T14:03:06;6.55;;;1.00;;
45476;SDS011;31958;51.756;-2.556;2024-01-07T14:05:32;1.75;;;0.77;;
45476;SDS011;31958;51.756;-2.556;2024-01-07T14:07:57;4.40;;;0.77;;
45476;SDS011;31958;51.756;-2.556;2024-01-07T14:10:23;0.30;;;0.30;;
45476;SDS011;31958;51.756;-2.556;2024-01-07T14:12:48;4.45;;;1.10;;
45476;SDS011;31958;51.756;-2.556;2024-01-07T14:15:13;0.90;;;0.70;;
45476;SDS011;31958;51.756;-2.556;2024-01-07T14:17:39;2.78;;;1.60;;
45476;SDS011;31958;51.756;-2.556;2024-01-07T14:20:05;4.35;;;0.80;;
45476;SDS011;31958;51.756;-2.556;2024-01-07T14:22:31;5.38;;;1.00;;
45476;SDS011;31958;51.756;-2.556;2024-01-07T14:24:56;0.93;;;0.57;;